Time;durP1;ratioP1;P1;durP2;ratioP2;P2;SDS_P1;SDS_P2;PMS_P1;PMS_P2;Temp;Humidity;BMP_temperature;BMP_pressure;BME280_temperature;BME280_humidity;BME280_pressure;Samples;Min_cycle;Max_cycle;Signal;HPM_P1;HPM_P2
2022/08/21 00:01:12;;;;;;;4.18;2.72;;;17.00;1.00;;;;;;7357579;19;20031;-66
2022/08/21 00:03:42;;;;;;;7.68;2.50;;;16.90;1.00;;;;;;7361279;19;20081;-66
2022/08/21 00:06:12;;;;;;;5.10;2.50;;;16.90;1.00;;;;;;7381298;19;20022;-65
2022/08/21 00:08:42;;;;;;;3.83;2.35;;;16.90;1.00;;;;;;7361103;19;20467;-65
2022/08/21 00:11:15;;;;;;;4.60;2.30;;;16.90;1.00;;;;;;7356105;19;20398;-66
2022/08/21 00:13:45;;;;;;;6.53;2.42;;;16.90;1.00;;;;;;7361346;19;20647;-67
2022/08/21 00:16:15;;;;;;;4.82;2.70;;;16.90;1.00;;;;;;7359502;19;20744;-66
2022/08/21 00:18:45;;;;;;;4.90;2.85;;;16.90;1.00;;;;;;7360737;19;20519;-67
2022/08/21 00:21:15;;;;;;;3.88;2.75;;;16.90;1.00;;;;;;7377933;19;20031;-66
2022/08/21 00:23:46;;;;;;;5.07;2.58;;;16.90;1.00;;;;;;7361375;19;20026;-66
2022/08/21 00:26:18;;;;;;;6.03;3.05;;;16.80;1.00;;;;;;7360133;19;20500;-66
2022/08/21 00:28:48;;;;;;;5.07;2.90;;;16.80;1.00;;;;;;7360366;19;20074;-66
2022/08/21 00:31:19;;;;;;;6.97;2.90;;;16.70;1.00;;;;;;7355933;19;20018;-66
2022/08/21 00:33:49;;;;;;;6.82;2.97;;;16.60;1.00;;;;;;7360619;19;20074;-66
2022/08/21 00:36:19;;;;;;;6.68;3.10;;;16.60;1.00;;;;;;7365524;19;20497;-67
2022/08/21 00:38:49;;;;;;;4.60;2.60;;;16.60;1.00;;;;;;7381708;19;20170;-66
2022/08/21 00:41:22;;;;;;;3.83;2.90;;;16.50;1.00;;;;;;7355188;19;20018;-66
2022/08/21 00:44:09;;;;;;;5.57;2.95;;;16.60;1.00;;;;;;7359784;19;20018;-67
2022/08/21 00:46:40;;;;;;;5.32;2.53;;;16.60;1.00;;;;;;7357734;19;20370;-66
2022/08/21 00:49:11;;;;;;;6.93;2.80;;;16.60;1.00;;;;;;7360366;19;20074;-66
2022/08/21 00:51:47;;;;;;;4.45;2.65;;;16.60;1.00;;;;;;7354558;19;20477;-66
2022/08/21 00:54:18;;;;;;;5.55;2.60;;;16.50;1.00;;;;;;7381492;19;20070;-66
2022/08/21 00:56:58;;;;;;;4.95;2.65;;;16.50;1.00;;;;;;7358058;19;20010;-66
2022/08/21 00:59:31;;;;;;;4.40;2.40;;;16.50;1.00;;;;;;7358860;19;20014;-66
2022/08/21 01:02:01;;;;;;;5.88;2.50;;;16.50;1.00;;;;;;7356402;19;20006;-66
2022/08/21 01:04:31;;;;;;;5.80;2.92;;;16.40;1.00;;;;;;7360183;19;20094;-66
2022/08/21 01:07:01;;;;;;;6.35;3.00;;;16.40;1.00;;;;;;7359031;19;20010;-66
2022/08/21 01:09:31;;;;;;;5.88;2.42;;;16.40;1.00;;;;;;7357920;19;20470;-66
2022/08/21 01:12:05;;;;;;;3.58;2.92;;;16.40;1.00;;;;;;7378295;19;20014;-66
2022/08/21 01:14:35;;;;;;;4.80;3.10;;;16.40;1.00;;;;;;7359396;19;20013;-66
2022/08/21 01:17:07;;;;;;;5.57;2.70;;;16.30;1.00;;;;;;7358893;19;20563;-67
2022/08/21 01:19:37;;;;;;;6.45;2.90;;;16.30;1.00;;;;;;7364679;19;20035;-67
2022/08/21 01:22:10;;;;;;;4.20;2.85;;;16.30;1.00;;;;;;7365417;19;20014;-67
2022/08/21 01:24:40;;;;;;;6.15;3.20;;;16.30;1.00;;;;;;7366334;19;20466;-67
2022/08/21 01:27:10;;;;;;;4.30;2.85;;;16.30;1.00;;;;;;7386227;19;20336;-65
2022/08/21 01:29:44;;;;;;;6.90;4.18;;;16.30;1.00;;;;;;7362974;19;20018;-66
2022/08/21 01:32:17;;;;;;;7.37;4.37;;;16.30;1.00;;;;;;7365066;19;20354;-65
2022/08/21 01:34:49;;;;;;;9.48;4.43;;;16.20;1.00;;;;;;7366597;19;20015;-66
2022/08/21 01:37:22;;;;;;;13.70;5.70;;;16.20;1.00;;;;;;7366633;19;20002;-66
2022/08/21 01:39:53;;;;;;;6.35;4.93;;;16.20;1.00;;;;;;7360967;19;20069;-66
2022/08/21 01:42:23;;;;;;;9.90;4.82;;;16.20;1.00;;;;;;7366067;19;20018;-66
2022/08/21 01:44:53;;;;;;;10.52;4.63;;;16.10;1.00;;;;;;7387889;19;20016;-66
2022/08/21 01:47:25;;;;;;;6.03;4.30;;;16.10;1.00;;;;;;7363415;19;20044;-66
2022/08/21 01:49:55;;;;;;;7.18;4.50;;;16.10;1.00;;;;;;7358338;19;20109;-66
2022/08/21 01:52:28;;;;;;;9.98;5.30;;;16.10;1.00;;;;;;7367440;19;20034;-66
2022/08/21 01:54:58;;;;;;;7.80;4.60;;;16.00;1.00;;;;;;7366200;19;20055;-66
2022/08/21 01:57:29;;;;;;;6.85;3.30;;;15.90;1.00;;;;;;7363061;19;20010;-66
2022/08/21 01:59:59;;;;;;;7.47;4.32;;;15.80;1.00;;;;;;7381862;19;20021;-66
2022/08/21 02:02:29;;;;;;;6.20;4.00;;;15.80;1.00;;;;;;7365252;19;20018;-66
2022/08/21 02:04:59;;;;;;;8.70;4.10;;;15.90;1.00;;;;;;7366324;19;20015;-66
2022/08/21 02:07:38;;;;;;;7.70;4.15;;;15.80;1.00;;;;;;7363568;19;20014;-65
2022/08/21 02:10:11;;;;;;;7.10;3.75;;;15.80;1.00;;;;;;7358641;19;20014;-65
2022/08/21 02:12:41;;;;;;;6.05;3.30;;;15.80;1.00;;;;;;7364488;19;20007;-66
2022/08/21 02:15:12;;;;;;;4.95;3.67;;;15.80;1.00;;;;;;7388767;19;20036;-66
2022/08/21 02:17:44;;;;;;;5.93;3.88;;;15.80;1.00;;;;;;7362170;19;20603;-66
2022/08/21 02:20:18;;;;;;;5.40;3.25;;;15.70;1.00;;;;;;7358606;19;20362;-65
2022/08/21 02:22:50;;;;;;;7.93;3.50;;;15.70;1.00;;;;;;7364494;19;20024;-66
2022/08/21 02:25:22;;;;;;;5.85;3.60;;;15.60;1.00;;;;;;7364779;19;20010;-66
2022/08/21 02:27:52;;;;;;;7.13;3.63;;;15.60;1.00;;;;;;7362076;19;20014;-66
2022/08/21 02:30:23;;;;;;;5.68;3.25;;;15.60;1.00;;;;;;7358921;19;20011;-66
2022/08/21 02:32:53;;;;;;;7.65;3.35;;;15.60;1.00;;;;;;7385194;19;20054;-66
2022/08/21 02:35:24;;;;;;;7.78;3.90;;;15.60;1.00;;;;;;7365524;19;20356;-66
2022/08/21 02:37:58;;;;;;;5.13;3.67;;;15.60;1.00;;;;;;7363597;19;20029;-65
2022/08/21 02:40:30;;;;;;;6.43;3.63;;;15.60;1.00;;;;;;7358777;19;20057;-66
2022/08/21 02:43:01;;;;;;;7.43;3.63;;;15.60;1.00;;;;;;7363570;19;20082;-66
2022/08/21 02:45:32;;;;;;;8.55;3.50;;;15.70;1.00;;;;;;7362745;19;20620;-67
2022/08/21 02:48:04;;;;;;;5.05;3.38;;;15.70;1.00;;;;;;7383868;19;20014;-66
2022/08/21 02:50:37;;;;;;;8.32;3.67;;;15.70;1.00;;;;;;7358032;19;20078;-66
2022/08/21 02:53:13;;;;;;;3.78;3.35;;;15.70;1.00;;;;;;7364011;19;20011;-66
2022/08/21 02:55:42;;;;;;;6.15;4.10;;;15.70;1.00;;;;;;7363894;19;20050;-66
2022/08/21 02:58:13;;;;;;;8.82;3.85;;;15.70;1.00;;;;;;7362087;19;20060;-66
2022/08/21 03:00:46;;;;;;;7.50;3.85;;;15.70;1.00;;;;;;7359171;19;20497;-66
2022/08/21 03:03:16;;;;;;;8.23;4.00;;;15.60;1.00;;;;;;7384527;19;20086;-67
2022/08/21 03:05:47;;;;;;;5.97;3.55;;;15.60;1.00;;;;;;7364425;19;20070;-66
2022/08/21 03:08:20;;;;;;;7.80;3.72;;;15.50;1.00;;;;;;7359751;19;20370;-66
2022/08/21 03:10:55;;;;;;;4.70;3.58;;;15.40;1.40;;;;;;7358188;19;20014;-66
2022/08/21 03:13:25;;;;;;;7.97;4.28;;;15.30;2.20;;;;;;7362446;19;20010;-65
2022/08/21 03:15:55;;;;;;;6.47;3.83;;;15.30;1.20;;;;;;7364292;19;20102;-66
2022/08/21 03:18:26;;;;;;;6.63;4.00;;;15.40;1.20;;;;;;7361288;19;20466;-66
2022/08/21 03:20:56;;;;;;;8.23;4.50;;;15.50;1.60;;;;;;7379961;19;20029;-66
2022/08/21 03:23:30;;;;;;;6.95;4.10;;;15.40;2.30;;;;;;7362623;19;20017;-66
2022/08/21 03:26:01;;;;;;;6.10;3.92;;;15.40;3.50;;;;;;7362136;19;20131;-66
2022/08/21 03:28:31;;;;;;;7.55;4.53;;;15.40;4.00;;;;;;7360808;19;20027;-66
2022/08/21 03:31:01;;;;;;;8.07;4.07;;;15.40;4.70;;;;;;7358330;19;20478;-64
2022/08/21 03:33:31;;;;;;;7.15;4.32;;;15.20;5.90;;;;;;7361826;19;20057;-65
2022/08/21 03:36:05;;;;;;;7.70;4.15;;;15.20;5.80;;;;;;7385435;19;20014;-65
2022/08/21 03:38:38;;;;;;;6.80;3.97;;;15.30;7.50;;;;;;7359804;19;20015;-66
2022/08/21 03:41:09;;;;;;;5.28;4.03;;;15.20;8.00;;;;;;7354162;19;20045;-65
2022/08/21 03:43:39;;;;;;;9.77;4.15;;;15.20;8.80;;;;;;7360286;19;20043;-65
2022/08/21 03:46:09;;;;;;;8.48;4.57;;;15.20;9.70;;;;;;7362565;19;20102;-65
2022/08/21 03:48:40;;;;;;;5.47;4.15;;;15.20;10.00;;;;;;7360524;19;20004;-65
2022/08/21 03:51:10;;;;;;;5.68;3.88;;;15.20;10.20;;;;;;7379901;19;20078;-65
2022/08/21 03:53:42;;;;;;;5.28;4.03;;;15.20;11.30;;;;;;7361109;19;20074;-65
2022/08/21 03:56:12;;;;;;;7.60;4.47;;;15.10;11.80;;;;;;7361476;19;20082;-66
2022/08/21 03:58:42;;;;;;;9.13;4.63;;;15.10;13.20;;;;;;7361240;19;20061;-65
2022/08/21 04:01:12;;;;;;;7.38;4.28;;;15.10;14.40;;;;;;7356630;19;20014;-66
2022/08/21 04:03:42;;;;;;;9.82;4.50;;;15.10;15.00;;;;;;7362497;19;20499;-65
2022/08/21 04:06:12;;;;;;;5.97;4.32;;;15.20;15.40;;;;;;7383246;19;20014;-66
2022/08/21 04:08:45;;;;;;;7.15;3.90;;;15.10;16.00;;;;;;7359796;19;20024;-66
2022/08/21 04:11:14;;;;;;;7.30;4.20;;;15.10;16.90;;;;;;7355921;19;20010;-65
2022/08/21 04:13:45;;;;;;;4.95;3.80;;;15.10;18.50;;;;;;7361562;19;20148;-65
2022/08/21 04:16:15;;;;;;;7.53;4.32;;;15.10;18.50;;;;;;7361720;19;20078;-65
2022/08/21 04:18:45;;;;;;;8.05;4.55;;;15.10;18.50;;;;;;7360700;19;20108;-66
2022/08/21 04:21:15;;;;;;;5.78;4.13;;;15.00;18.70;;;;;;7377595;19;20104;-66
2022/08/21 04:23:48;;;;;;;8.95;4.20;;;15.00;19.80;;;;;;7361263;19;20026;-66
2022/08/21 04:26:18;;;;;;;6.18;4.47;;;15.00;19.90;;;;;;7360352;19;20011;-64
2022/08/21 04:28:48;;;;;;;12.15;4.65;;;15.00;20.40;;;;;;7360004;19;20094;-65
2022/08/21 04:31:18;;;;;;;6.18;4.40;;;14.90;20.80;;;;;;7355780;19;20017;-65
2022/08/21 04:33:47;;;;;;;5.65;4.30;;;14.90;22.20;;;;;;7360663;19;20581;-65
2022/08/21 04:36:18;;;;;;;6.05;4.60;;;15.00;21.50;;;;;;7379817;19;20477;-66
2022/08/21 04:38:55;;;;;;;5.25;4.18;;;14.90;21.80;;;;;;7380810;19;20522;-65
2022/08/21 04:41:26;;;;;;;7.70;4.57;;;14.90;21.90;;;;;;7353852;19;20010;-66
2022/08/21 04:43:57;;;;;;;8.13;4.75;;;15.00;22.00;;;;;;7360449;19;20028;-66
2022/08/21 04:46:28;;;;;;;7.03;4.82;;;15.50;18.80;;;;;;7360355;19;20017;-66
2022/08/21 04:48:58;;;;;;;6.20;4.65;;;16.20;13.80;;;;;;7358144;19;20021;-65
2022/08/21 04:51:32;;;;;;;7.82;4.45;;;16.50;9.20;;;;;;7355781;19;20010;-66
2022/08/21 04:54:20;;;;;;;6.25;4.38;;;16.90;6.30;;;;;;7389910;19;20473;-66
2022/08/21 04:56:55;;;;;;;5.68;4.32;;;17.40;1.60;;;;;;7367154;19;20018;-65
2022/08/21 04:59:28;;;;;;;7.10;4.15;;;17.80;1.00;;;;;;7366848;19;20010;-66
2022/08/21 05:01:59;;;;;;;5.97;4.45;;;18.00;1.00;;;;;;7362864;19;20017;-66
2022/08/21 05:04:33;;;;;;;6.32;4.15;;;18.40;1.00;;;;;;7367219;19;20592;-66
2022/08/21 05:07:08;;;;;;;8.38;4.35;;;18.50;1.00;;;;;;7366441;19;20053;-66
2022/08/21 05:09:41;;;;;;;6.72;3.97;;;18.90;1.00;;;;;;7363486;19;20730;-66
2022/08/21 05:12:11;;;;;;;6.43;4.20;;;19.30;1.00;;;;;;7387084;19;20024;-66
2022/08/21 05:14:42;;;;;;;5.35;4.00;;;19.50;1.00;;;;;;7367268;19;20017;-66
2022/08/21 05:17:12;;;;;;;4.70;3.72;;;20.30;1.00;;;;;;7366021;19;20438;-66
2022/08/21 05:19:42;;;;;;;5.95;3.97;;;20.40;1.00;;;;;;7362552;19;20017;-66
2022/08/21 05:22:12;;;;;;;3.97;3.53;;;20.20;1.00;;;;;;7365329;19;20077;-66
2022/08/21 05:24:44;;;;;;;5.55;3.60;;;21.10;1.00;;;;;;7366945;19;20122;-65
2022/08/21 05:27:14;;;;;;;4.88;3.10;;;21.20;1.00;;;;;;7387698;19;20106;-66
2022/08/21 05:29:46;;;;;;;5.60;3.90;;;21.40;1.00;;;;;;7360392;19;20074;-66
2022/08/21 05:32:17;;;;;;;7.22;3.55;;;21.80;1.00;;;;;;7365198;19;20015;-64
2022/08/21 05:34:47;;;;;;;5.63;3.30;;;22.10;1.00;;;;;;7364532;19;20010;-66
2022/08/21 05:37:17;;;;;;;4.43;3.10;;;21.60;1.00;;;;;;7365176;19;20020;-66
2022/08/21 05:39:49;;;;;;;6.75;3.58;;;21.90;1.00;;;;;;7361217;19;20541;-65
2022/08/21 05:42:39;;;;;;;6.03;3.30;;;21.50;1.00;;;;;;7365611;19;20015;-66
2022/08/21 05:45:10;;;;;;;5.18;3.22;;;20.40;1.00;;;;;;7388669;19;20009;-66
2022/08/21 05:47:40;;;;;;;8.18;3.75;;;18.90;1.00;;;;;;7363051;19;20010;-66
2022/08/21 05:50:10;;;;;;;5.85;3.60;;;18.30;1.00;;;;;;7357407;19;20011;-66
2022/08/21 05:52:40;;;;;;;5.97;3.22;;;18.20;1.00;;;;;;7365398;19;20014;-65
2022/08/21 05:55:13;;;;;;;7.03;3.42;;;18.00;1.00;;;;;;7366350;19;20015;-66
2022/08/21 05:57:43;;;;;;;8.25;4.07;;;17.90;1.00;;;;;;7363540;19;20010;-66
2022/08/21 06:00:14;;;;;;;5.85;3.80;;;18.00;1.00;;;;;;7381023;19;20391;-66
2022/08/21 06:02:44;;;;;;;9.30;3.58;;;17.70;1.00;;;;;;7363300;19;20484;-67
2022/08/21 06:05:14;;;;;;;5.88;3.70;;;17.70;1.00;;;;;;7365503;19;20018;-66
2022/08/21 06:07:53;;;;;;;7.20;4.22;;;17.70;1.00;;;;;;7364228;19;20490;-66
2022/08/21 06:10:26;;;;;;;5.00;3.85;;;18.00;1.00;;;;;;7358652;19;20073;-66
2022/08/21 06:12:56;;;;;;;5.97;3.83;;;18.20;1.00;;;;;;7365246;19;20020;-65
2022/08/21 06:15:26;;;;;;;5.38;3.60;;;18.10;1.00;;;;;;7365293;19;20051;-66
2022/08/21 06:17:57;;;;;;;7.68;3.85;;;18.30;1.00;;;;;;7386806;19;20011;-66
2022/08/21 06:20:27;;;;;;;5.90;3.90;;;18.30;1.00;;;;;;7358299;19;20010;-66
2022/08/21 06:22:57;;;;;;;7.22;4.20;;;18.30;1.00;;;;;;7363004;19;20014;-66
2022/08/21 06:25:30;;;;;;;5.55;4.20;;;18.20;1.00;;;;;;7365381;19;20082;-66
2022/08/21 06:28:04;;;;;;;6.03;3.97;;;18.30;1.00;;;;;;7365070;19;20003;-66
2022/08/21 06:30:34;;;;;;;6.07;4.30;;;18.50;1.00;;;;;;7356363;19;20099;-66
2022/08/21 06:33:05;;;;;;;8.57;4.13;;;18.60;1.00;;;;;;7385448;19;20024;-66
2022/08/21 06:35:36;;;;;;;7.35;4.13;;;18.80;1.00;;;;;;7363995;19;20106;-66
2022/08/21 06:38:10;;;;;;;5.35;4.03;;;18.80;1.00;;;;;;7363967;19;20009;-66
2022/08/21 06:40:44;;;;;;;7.00;4.35;;;19.00;1.00;;;;;;7358067;19;20397;-66
2022/08/21 06:43:19;;;;;;;5.95;4.00;;;19.00;1.00;;;;;;7363676;19;20018;-66
2022/08/21 06:45:49;;;;;;;6.38;4.15;;;19.00;1.00;;;;;;7363642;19;20085;-65
2022/08/21 06:48:19;;;;;;;5.60;3.38;;;19.10;1.00;;;;;;7372588;19;20014;-65
2022/08/21 06:50:49;;;;;;;5.90;3.35;;;19.30;1.00;;;;;;7379040;19;20010;-66
2022/08/21 06:53:22;;;;;;;6.38;3.35;;;19.40;1.00;;;;;;7362764;19;20013;-67
2022/08/21 06:55:54;;;;;;;7.22;3.63;;;19.50;1.00;;;;;;7363715;19;20125;-65
2022/08/21 06:58:24;;;;;;;9.43;4.72;;;19.50;1.00;;;;;;7362346;19;20038;-66
2022/08/21 07:00:54;;;;;;;8.27;3.58;;;19.60;1.00;;;;;;7357881;19;20113;-66
2022/08/21 07:03:32;;;;;;;6.18;3.58;;;19.80;1.00;;;;;;7362284;19;20006;-66
2022/08/21 07:06:01;;;;;;;7.03;3.20;;;20.00;1.00;;;;;;7385046;19;20442;-66
2022/08/21 07:08:32;;;;;;;6.15;3.20;;;19.90;1.00;;;;;;7361584;19;20101;-67
2022/08/21 07:11:09;;;;;;;7.47;3.97;;;19.90;1.00;;;;;;7356050;19;20015;-66
2022/08/21 07:13:39;;;;;;;6.13;3.35;;;20.20;1.00;;;;;;7362662;19;20014;-65
2022/08/21 07:16:09;;;;;;;12.32;3.53;;;20.40;1.00;;;;;;7358773;19;20793;-66
2022/08/21 07:18:39;;;;;;;6.10;3.38;;;20.60;1.00;;;;;;7362474;19;20494;-67
2022/08/21 07:21:10;;;;;;;5.68;3.15;;;20.80;1.00;;;;;;7379798;19;20082;-66
2022/08/21 07:23:44;;;;;;;9.75;3.80;;;20.60;1.00;;;;;;7362488;19;20011;-66
2022/08/21 07:26:17;;;;;;;;;;;20.40;1.00;;;;;;7361327;19;20011;-66
2022/08/21 07:28:47;;;;;;;6.35;3.65;;;20.30;1.00;;;;;;7360970;19;19925;-66
2022/08/21 07:31:19;;;;;;;7.05;3.78;;;20.40;1.00;;;;;;7357129;19;20014;-66
2022/08/21 07:33:49;;;;;;;5.38;3.35;;;20.30;1.00;;;;;;7362787;19;20014;-67
2022/08/21 07:36:19;;;;;;;7.93;3.80;;;20.30;1.00;;;;;;7371010;19;20017;-67
2022/08/21 07:38:49;;;;;;;10.63;3.58;;;20.50;1.00;;;;;;7383017;19;20794;-67
2022/08/21 07:41:29;;;;;;;8.25;3.60;;;20.50;1.00;;;;;;7355930;19;21220;-66
2022/08/21 07:44:00;;;;;;;6.13;3.65;;;20.70;1.00;;;;;;7362493;19;20006;-65
2022/08/21 07:46:30;;;;;;;9.68;3.83;;;20.90;1.00;;;;;;7360794;19;20018;-65
2022/08/21 07:49:00;;;;;;;7.57;3.92;;;20.80;1.00;;;;;;7359697;19;20016;-66
2022/08/21 07:51:31;;;;;;;13.55;4.90;;;20.80;1.00;;;;;;7354516;19;20014;-66
2022/08/21 07:54:01;;;;;;;10.07;3.90;;;21.00;1.00;;;;;;7383977;19;20018;-67
2022/08/21 07:56:34;;;;;;;7.40;3.85;;;20.80;1.00;;;;;;7362144;19;20014;-66
2022/08/21 07:59:04;;;;;;;8.43;3.90;;;21.00;1.00;;;;;;7359982;19;20014;-66
2022/08/21 08:01:33;;;;;;;9.23;4.50;;;21.20;1.00;;;;;;7354521;19;20018;-66
2022/08/21 08:04:04;;;;;;;6.78;3.65;;;21.50;1.00;;;;;;7361520;19;20510;-67
2022/08/21 08:06:34;;;;;;;6.88;3.47;;;21.50;1.00;;;;;;7360940;19;20509;-67
2022/08/21 08:09:04;;;;;;;9.95;4.32;;;21.30;1.00;;;;;;7382061;19;20081;-67
2022/08/21 08:11:37;;;;;;;8.98;3.60;;;21.60;1.00;;;;;;7353520;19;20020;-66
2022/08/21 08:14:07;;;;;;;6.53;3.95;;;21.70;1.00;;;;;;7360925;19;20581;-66
2022/08/21 08:16:37;;;;;;;7.40;3.80;;;21.60;1.00;;;;;;7359428;19;20013;-66
2022/08/21 08:19:07;;;;;;;9.07;4.15;;;21.10;1.00;;;;;;7360823;19;20003;-66
2022/08/21 08:21:38;;;;;;;7.93;3.92;;;21.30;1.00;;;;;;7354976;19;20014;-65
2022/08/21 08:24:08;;;;;;;5.75;3.63;;;21.50;1.00;;;;;;7382750;19;20006;-66
2022/08/21 08:26:50;;;;;;;9.70;4.22;;;21.60;1.00;;;;;;7358006;19;20037;-66
2022/08/21 08:29:23;;;;;;;5.93;3.45;;;21.70;1.00;;;;;;7358095;19;20363;-66
2022/08/21 08:31:54;;;;;;;8.30;3.90;;;21.90;1.00;;;;;;7354003;19;20355;-66
2022/08/21 08:34:24;;;;;;;6.68;4.32;;;21.90;1.00;;;;;;7360716;19;20010;-67
2022/08/21 08:36:57;;;;;;;9.05;4.50;;;22.00;1.00;;;;;;7359960;19;20006;-67
2022/08/21 08:39:28;;;;;;;8.23;4.03;;;22.00;1.00;;;;;;7359872;19;20015;-67
2022/08/21 08:42:09;;;;;;;7.53;4.13;;;22.30;1.00;;;;;;7376884;19;20013;-67
2022/08/21 08:45:03;;;;;;;9.13;4.05;;;22.30;1.00;;;;;;7361038;19;20007;-66
2022/08/21 08:47:35;;;;;;;9.93;4.15;;;22.30;1.00;;;;;;7358963;19;20015;-67
2022/08/21 08:50:08;;;;;;;5.70;3.97;;;22.30;1.00;;;;;;7351836;19;20017;-67
2022/08/21 08:52:44;;;;;;;7.50;3.67;;;22.60;1.00;;;;;;7359401;19;20010;-65
2022/08/21 08:55:17;;;;;;;7.47;4.00;;;22.50;1.00;;;;;;7361825;19;20138;-65
2022/08/21 08:57:51;;;;;;;9.73;4.25;;;22.60;1.00;;;;;;7359088;19;20010;-67
2022/08/21 09:00:23;;;;;;;6.90;3.33;;;22.60;1.00;;;;;;7352702;19;20017;-66
2022/08/21 09:02:58;;;;;;;6.50;3.72;;;22.90;1.00;;;;;;7379812;19;20082;-67
2022/08/21 09:05:31;;;;;;;4.82;3.60;;;22.60;1.00;;;;;;7359818;19;20017;-66
2022/08/21 09:08:18;;;;;;;6.32;3.55;;;23.20;1.00;;;;;;7360152;19;20370;-66
2022/08/21 09:10:57;;;;;;;5.55;3.60;;;23.10;1.00;;;;;;7354068;19;20334;-66
2022/08/21 09:13:41;;;;;;;9.02;3.97;;;23.00;1.00;;;;;;7357500;19;20011;-66
2022/08/21 09:16:23;;;;;;;6.22;3.40;;;23.20;1.00;;;;;;7359283;19;20082;-66
2022/08/21 09:19:02;;;;;;;8.73;3.80;;;23.20;1.00;;;;;;7357590;19;20087;-66
2022/08/21 09:21:43;;;;;;;10.02;3.63;;;23.30;1.00;;;;;;7351485;19;20014;-67
2022/08/21 09:24:29;;;;;;;7.00;3.55;;;23.10;1.00;;;;;;7382064;19;20014;-66
2022/08/21 09:27:06;;;;;;;6.60;3.80;;;23.10;1.00;;;;;;7358248;19;20026;-67
2022/08/21 09:29:42;;;;;;;5.05;3.42;;;23.70;1.00;;;;;;7355604;19;20114;-67
2022/08/21 09:32:18;;;;;;;7.45;4.00;;;24.20;1.00;;;;;;7355269;19;20010;-67
2022/08/21 09:34:59;;;;;;;7.85;3.63;;;23.90;1.00;;;;;;7358262;19;20473;-67
2022/08/21 09:37:31;;;;;;;10.02;3.80;;;23.70;1.00;;;;;;7359259;19;20466;-67
2022/08/21 09:40:01;;;;;;;6.30;3.90;;;23.90;1.00;;;;;;7357811;19;20014;-67
2022/08/21 09:42:34;;;;;;;9.05;3.42;;;24.00;1.00;;;;;;7365997;19;20838;-67
2022/08/21 09:45:14;;;;;;;6.05;3.35;;;23.60;1.00;;;;;;7389215;19;20022;-66
2022/08/21 09:47:45;;;;;;;8.52;3.67;;;23.60;1.00;;;;;;7365269;19;20006;-66
2022/08/21 09:50:18;;;;;;;7.32;3.55;;;23.90;1.00;;;;;;7357968;19;20022;-66
2022/08/21 09:52:53;;;;;;;9.88;3.40;;;24.00;1.00;;;;;;7364968;19;20014;-66
2022/08/21 09:58:14;;;;;;;6.53;3.28;;;23.80;1.00;;;;;;7365534;19;20017;-66
2022/08/21 10:00:47;;;;;;;5.50;3.47;;;24.00;1.00;;;;;;7360351;19;20476;-67
2022/08/21 10:03:21;;;;;;;6.63;3.10;;;24.30;1.00;;;;;;7386376;19;20014;-66
2022/08/21 10:06:01;;;;;;;10.52;3.38;;;24.30;1.00;;;;;;7364985;19;20026;-66
2022/08/21 10:08:32;;;;;;;12.40;3.33;;;24.40;1.00;;;;;;7364615;19;20748;-66
2022/08/21 10:11:07;;;;;;;7.80;3.50;;;24.40;1.00;;;;;;7359211;19;20692;-66
2022/08/21 10:13:54;;;;;;;8.07;3.35;;;24.50;1.00;;;;;;7364676;19;21079;-67
2022/08/21 10:16:37;;;;;;;6.53;3.25;;;24.80;1.00;;;;;;7364002;19;20017;-67
2022/08/21 10:19:22;;;;;;;6.80;3.33;;;24.80;1.00;;;;;;7364236;19;20010;-66
2022/08/21 10:22:03;;;;;;;8.00;3.38;;;24.80;1.00;;;;;;7359633;19;20019;-66
2022/08/21 10:24:38;;;;;;;6.65;3.22;;;24.30;1.00;;;;;;7364133;19;20010;-67
2022/08/21 10:27:18;;;;;;;9.90;4.75;;;24.30;1.00;;;;;;7384509;19;20680;-67
2022/08/21 10:29:58;;;;;;;4.25;2.97;;;24.80;1.00;;;;;;7359041;19;20010;-66
2022/08/21 10:32:45;;;;;;;9.18;3.17;;;25.00;1.00;;;;;;7362359;19;20021;-66
2022/08/21 10:35:20;;;;;;;5.55;2.90;;;25.00;1.00;;;;;;7364811;19;20098;-66
2022/08/21 10:38:09;;;;;;;7.57;3.55;;;25.20;1.00;;;;;;7365044;19;20018;-66
2022/08/21 10:40:44;;;;;;;9.68;2.92;;;25.40;1.00;;;;;;7357775;19;20050;-67
2022/08/21 10:43:28;;;;;;;11.25;3.70;;;25.50;1.00;;;;;;7363655;19;20345;-67
2022/08/21 10:46:06;;;;;;;7.43;3.17;;;25.60;1.00;;;;;;7365430;19;20010;-66
2022/08/21 10:48:42;;;;;;;6.10;2.85;;;25.20;1.00;;;;;;7363918;19;20022;-67
2022/08/21 10:51:18;;;;;;;6.78;2.88;;;25.50;1.00;;;;;;7381073;19;20021;-66
2022/08/21 10:54:06;;;;;;;6.38;2.83;;;25.30;1.00;;;;;;7364025;19;20014;-67
2022/08/21 10:56:40;;;;;;;8.43;3.30;;;25.30;1.00;;;;;;7363111;19;20529;-66
2022/08/21 10:59:28;;;;;;;7.72;3.30;;;25.00;1.00;;;;;;7362349;19;20066;-66
2022/08/21 11:02:05;;;;;;;7.85;3.22;;;24.90;1.00;;;;;;7358319;19;20014;-66
2022/08/21 11:04:45;;;;;;;8.18;3.10;;;25.30;1.00;;;;;;7363916;19;20485;-65
2022/08/21 11:07:23;;;;;;;6.03;2.92;;;25.00;1.00;;;;;;7363819;19;20006;-66
2022/08/21 11:09:56;;;;;;;8.50;2.92;;;25.00;1.00;;;;;;7357157;19;20015;-68
2022/08/21 11:12:33;;;;;;;5.03;3.23;;;25.30;1.00;;;;;;7360200;19;20620;-66
2022/08/21 11:15:07;;;;;;;6.07;3.10;;;25.10;1.00;;;;;;7385122;19;20255;-67
2022/08/21 11:18:04;;;;;;;7.50;3.50;;;25.20;1.00;;;;;;7364272;19;20498;-67
2022/08/21 11:20:45;;;;;;;6.00;2.72;;;25.20;1.00;;;;;;7356793;19;20019;-66
2022/08/21 11:23:21;;;;;;;4.85;2.97;;;25.40;1.00;;;;;;7362027;19;20003;-66
2022/08/21 11:25:55;;;;;;;7.22;3.10;;;25.50;1.00;;;;;;7362542;19;20043;-66
2022/08/21 11:28:30;;;;;;;4.80;2.35;;;25.00;1.00;;;;;;7361439;19;20025;-67
2022/08/21 11:31:12;;;;;;;5.57;2.65;;;25.30;1.00;;;;;;7357266;19;20021;-66
2022/08/21 11:34:03;;;;;;;7.10;3.17;;;25.80;1.00;;;;;;7361458;19;20014;-67
2022/08/21 11:36:43;;;;;;;6.53;3.28;;;26.10;1.00;;;;;;7362796;19;20064;-67
2022/08/21 11:39:24;;;;;;;4.05;2.60;;;26.40;1.00;;;;;;7383310;19;20014;-66
2022/08/21 11:42:01;;;;;;;7.10;3.10;;;26.50;1.00;;;;;;7357033;19;20011;-67
2022/08/21 11:44:50;;;;;;;6.25;2.75;;;26.20;1.00;;;;;;7362872;19;20414;-66
2022/08/21 11:47:30;;;;;;;5.53;2.40;;;26.40;1.00;;;;;;7360847;19;20010;-66
2022/08/21 11:50:16;;;;;;;8.13;2.25;;;26.30;1.00;;;;;;7355554;19;20017;-66
2022/08/21 11:53:14;;;;;;;7.95;2.40;;;26.10;1.00;;;;;;7360111;19;20021;-66
2022/08/21 11:55:49;;;;;;;5.75;2.47;;;26.00;1.00;;;;;;7361652;19;20612;-67
2022/08/21 11:58:24;;;;;;;4.68;2.60;;;26.10;1.00;;;;;;7362606;19;20081;-66
2022/08/21 12:00:58;;;;;;;7.82;3.05;;;26.00;1.00;;;;;;7355027;19;20501;-66
2022/08/21 12:03:29;;;;;;;;;;;25.70;1.00;;;;;;7361468;19;20077;-66
2022/08/21 12:06:02;;;;;;;4.15;2.58;;;26.10;1.00;;;;;;7383442;19;19922;-66
2022/08/21 12:08:37;;;;;;;5.95;2.70;;;26.10;1.00;;;;;;7358645;19;20043;-66
2022/08/21 12:11:10;;;;;;;7.30;2.70;;;26.00;1.00;;;;;;7355581;19;20038;-66
2022/08/21 12:13:54;;;;;;;4.75;2.70;;;26.30;1.00;;;;;;7360812;19;20493;-67
2022/08/21 12:16:33;;;;;;;3.38;2.30;;;26.30;1.00;;;;;;7361816;19;20015;-66
2022/08/21 12:19:09;;;;;;;4.45;2.45;;;26.00;1.00;;;;;;7361878;19;20478;-66
2022/08/21 12:21:52;;;;;;;4.35;2.30;;;26.10;1.00;;;;;;7356718;19;20010;-67
2022/08/21 12:24:38;;;;;;;7.88;2.40;;;26.30;1.00;;;;;;7361180;19;20087;-65
2022/08/21 12:27:25;;;;;;;4.07;2.53;;;26.30;1.00;;;;;;7382015;19;20021;-66
2022/08/21 12:29:58;;;;;;;4.43;2.40;;;26.00;1.00;;;;;;7354980;19;20804;-65
2022/08/21 12:32:31;;;;;;;7.82;2.47;;;25.80;1.00;;;;;;7360994;19;20015;-66
2022/08/21 12:35:11;;;;;;;4.30;2.07;;;26.30;1.00;;;;;;7361726;19;20013;-66
2022/08/21 12:38:01;;;;;;;6.35;2.30;;;26.10;1.00;;;;;;7361006;19;20022;-66
2022/08/21 12:40:42;;;;;;;5.90;2.03;;;26.40;1.00;;;;;;7354008;19;20017;-66
2022/08/21 12:43:20;;;;;;;4.35;2.40;;;26.50;1.00;;;;;;7359592;19;20014;-67
2022/08/21 12:45:53;;;;;;;5.50;2.38;;;26.60;1.00;;;;;;7361687;19;20054;-66
2022/08/21 12:48:28;;;;;;;6.30;2.47;;;26.70;1.00;;;;;;7360053;19;20035;-66
2022/08/21 12:51:07;;;;;;;4.40;2.33;;;26.70;1.00;;;;;;7376511;19;20025;-67
2022/08/21 12:53:44;;;;;;;4.85;2.33;;;26.70;1.00;;;;;;7358236;19;20501;-65
2022/08/21 12:56:20;;;;;;;5.28;2.35;;;26.70;1.00;;;;;;7359749;19;20011;-65
2022/08/21 12:58:53;;;;;;;5.88;2.25;;;26.40;1.00;;;;;;7360876;19;20066;-66
2022/08/21 13:01:28;;;;;;;2.83;2.13;;;26.60;1.00;;;;;;7353579;19;20118;-67
2022/08/21 13:04:01;;;;;;;4.28;2.15;;;26.50;1.00;;;;;;7359665;19;20094;-66
2022/08/21 13:06:41;;;;;;;3.95;2.13;;;26.70;1.00;;;;;;7359514;19;20014;-65
2022/08/21 13:09:15;;;;;;;5.80;2.30;;;26.70;1.00;;;;;;7380724;19;20010;-66
2022/08/21 13:11:50;;;;;;;3.83;2.28;;;26.90;1.00;;;;;;7353198;19;20017;-66
2022/08/21 13:14:27;;;;;;;6.70;2.60;;;27.00;1.00;;;;;;7361156;19;20021;-66
2022/08/21 13:16:58;;;;;;;6.05;2.15;;;26.90;1.00;;;;;;7364979;19;20058;-66
2022/08/21 13:19:29;;;;;;;5.20;2.60;;;26.90;1.00;;;;;;7365879;19;20074;-66
2022/08/21 13:21:59;;;;;;;4.72;2.40;;;27.10;1.00;;;;;;7361792;19;20395;-65
2022/08/21 13:24:32;;;;;;;3.72;2.17;;;26.70;1.00;;;;;;7366763;19;20014;-66
2022/08/21 13:27:29;;;;;;;5.28;2.47;;;26.90;1.00;;;;;;7386715;19;20382;-65
2022/08/21 13:30:10;;;;;;;6.07;2.80;;;26.80;1.00;;;;;;7358614;19;20040;-67
2022/08/21 13:32:44;;;;;;;7.43;2.20;;;27.20;1.00;;;;;;7365661;19;20116;-67